Time;durP1;ratioP1;P1;durP2;ratioP2;P2;SDS_P1;SDS_P2;PMS_P1;PMS_P2;Temp;Humidity;BMP_temperature;BMP_pressure;BME280_temperature;BME280_humidity;BME280_pressure;Samples;Min_cycle;Max_cycle;Signal;HPM_P1;HPM_P2
2023/05/12 00:00:22;;;;;;;;;;;;;;;15.40;100.00;99807.88;5091842;28;20418;-59
2023/05/12 00:02:48;;;;;;;;;;;;;;;15.41;100.00;99809.63;5092089;28;19916;-57
2023/05/12 00:05:13;;;;;;;;;;;;;;;15.43;100.00;99802.38;5091670;28;20367;-56
2023/05/12 00:07:38;;;;;;;;;;;;;;;15.42;100.00;99805.97;5092675;28;19956;-56
2023/05/12 00:10:04;;;;;;;;;;;;;;;15.40;100.00;99799.81;5089056;28;20704;-56
2023/05/12 00:12:29;;;;;;;;;;;;;;;15.39;100.00;99800.78;5092408;28;20039;-56
2023/05/12 00:14:55;;;;;;;;;;;;;;;15.37;100.00;99797.28;5092155;28;19923;-56
2023/05/12 00:17:20;;;;;;;;;;;;;;;15.37;100.00;99797.28;5088066;28;19920;-56
2023/05/12 00:19:47;;;;;;;;;;;;;;;15.37;100.00;99796.44;5092257;28;19985;-56
2023/05/12 00:22:12;;;;;;;;;;;;;;;15.35;100.00;99792.97;5089621;28;20010;-56
2023/05/12 00:24:38;;;;;;;;;;;;;;;15.34;100.00;99796.59;5091367;28;20010;-56
2023/05/12 00:27:04;;;;;;;;;;;;;;;15.33;100.00;99790.38;5091583;28;19928;-56
2023/05/12 00:29:30;;;;;;;;;;;;;;;15.33;100.00;99794.88;5090062;28;19923;-56
2023/05/12 00:31:55;;;;;;;;;;;;;;;15.32;100.00;99785.97;5085795;28;19916;-57
2023/05/12 00:34:20;;;;;;;;;;;;;;;15.35;100.00;99793.81;5091330;28;19956;-56
2023/05/12 00:36:45;;;;;;;;;;;;;;;15.39;100.00;99790.06;5090826;28;19950;-56
2023/05/12 00:39:11;;;;;;;;;;;;;;;15.39;100.00;99794.56;5091052;28;19912;-56
2023/05/12 00:41:36;;;;;;;;;;;;;;;15.38;100.00;99798.16;5090794;28;19919;-56
2023/05/12 00:44:01;;;;;;;;;;;;;;;15.40;100.00;99786.44;5092017;28;19912;-56
2023/05/12 00:46:27;;;;;;;;;;;;;;;15.21;100.00;99752.66;5092118;28;20423;-56
2023/05/12 00:48:52;;;;;;;;;;;;;;;15.39;100.00;99787.38;5091271;28;19916;-57
2023/05/12 00:51:17;;;;;;;;;;;;;;;15.39;100.00;99784.72;5091932;28;19966;-57
2023/05/12 00:53:43;;;;;;;;;;;;;;;15.42;100.00;99784.53;5091016;28;19924;-57
2023/05/12 00:56:08;;;;;;;;;;;;;;;15.45;100.00;99794.25;5091704;28;20656;-57
2023/05/12 00:58:33;;;;;;;;;;;;;;;15.45;100.00;99787.03;5091628;28;19928;-57
2023/05/12 01:00:59;;;;;;;;;;;;;;;15.44;100.00;99788.00;5090786;28;19943;-57
2023/05/12 01:03:24;;;;;;;;;;;;;;;15.43;100.00;99791.66;5090958;28;19916;-56
2023/05/12 01:05:55;;;;;;;;;;;;;;;15.41;100.00;99782.81;5081596;28;19969;-57
2023/05/12 01:08:22;;;;;;;;;;;;;;;15.39;100.00;99789.19;5071105;28;19977;-57
2023/05/12 01:10:47;;;;;;;;;;;;;;;15.37;100.00;99786.56;5082162;28;19939;-57
2023/05/12 01:13:12;;;;;;;;;;;;;;;15.35;100.00;99782.25;5091466;28;20372;-57
2023/05/12 01:15:39;;;;;;;;;;;;;;;15.34;100.00;99781.38;5090093;28;19920;-57
2023/05/12 01:18:05;;;;;;;;;;;;;;;15.34;100.00;99784.06;5090473;28;19923;-57
2023/05/12 01:20:31;;;;;;;;;;;;;;;15.33;100.00;99781.47;5072986;28;19964;-57
2023/05/12 01:22:57;;;;;;;;;;;;;;;15.36;100.00;99784.84;5070951;28;19963;-57
2023/05/12 01:25:23;;;;;;;;;;;;;;;15.39;100.00;99786.50;5087853;28;19923;-57
2023/05/12 01:27:49;;;;;;;;;;;;;;;15.36;100.00;99784.84;5090394;28;19926;-57
2023/05/12 01:30:15;;;;;;;;;;;;;;;15.39;100.00;99784.72;5090789;28;19920;-57
2023/05/12 01:32:41;;;;;;;;;;;;;;;15.40;100.00;99791.78;5091070;28;19959;-57
2023/05/12 01:35:06;;;;;;;;;;;;;;;15.42;100.00;99789.91;5085807;28;20405;-57
2023/05/12 01:37:32;;;;;;;;;;;;;;;15.40;100.00;99785.59;5070790;28;20376;-57
2023/05/12 01:39:57;;;;;;;;;;;;;;;15.44;100.00;99788.00;5057076;28;19970;-56
2023/05/12 01:42:22;;;;;;;;;;;;;;;15.42;100.00;99789.91;5090789;28;19974;-56
2023/05/12 01:44:47;;;;;;;;;;;;;;;15.44;100.00;99793.38;5090683;28;20483;-57
2023/05/12 01:47:14;;;;;;;;;;;;;;;15.44;100.00;99792.50;5091013;28;19915;-57
2023/05/12 01:49:39;;;;;;;;;;;;;;;15.42;100.00;99789.91;5090484;28;19926;-57
2023/05/12 01:52:05;;;;;;;;;;;;;;;15.41;100.00;99790.84;5091053;28;19912;-57
2023/05/12 01:54:30;;;;;;;;;;;;;;;15.41;100.00;99798.91;5090764;28;19998;-57
2023/05/12 01:56:55;;;;;;;;;;;;;;;15.40;100.00;99797.16;5090475;28;19923;-57
2023/05/12 01:59:21;;;;;;;;;;;;;;;15.38;100.00;99792.81;5089567;28;19965;-56
2023/05/12 02:01:46;;;;;;;;;;;;;;;15.35;100.00;99796.50;5086812;28;19951;-56
2023/05/12 02:04:11;;;;;;;;;;;;;;;15.35;100.00;99792.97;5089344;28;19927;-56
2023/05/12 02:06:36;;;;;;;;;;;;;;;15.35;100.00;99793.81;5090259;28;19955;-57
2023/05/12 02:09:02;;;;;;;;;;;;;;;15.37;100.00;99794.63;5090615;28;20346;-56
2023/05/12 02:11:27;;;;;;;;;;;;;;;15.40;100.00;99790.94;5088905;28;19926;-57
2023/05/12 02:13:52;;;;;;;;;;;;;;;15.39;100.00;99790.06;5078997;28;19912;-56
2023/05/12 02:16:18;;;;;;;;;;;;;;;15.39;100.00;99794.56;5088210;28;20002;-57
2023/05/12 02:18:43;;;;;;;;;;;;;;;15.38;100.00;99788.31;5088805;28;19923;-57
2023/05/12 02:21:08;;;;;;;;;;;;;;;15.35;100.00;99785.78;5090027;28;19956;-57
2023/05/12 02:23:34;;;;;;;;;;;;;;;15.34;100.00;99791.22;5089962;28;19920;-57
2023/05/12 02:25:59;;;;;;;;;;;;;;;15.34;100.00;99786.75;5088923;28;19919;-56
2023/05/12 02:28:24;;;;;;;;;;;;;;;15.33;100.00;99785.03;5090032;28;19959;-57
2023/05/12 02:30:51;;;;;;;;;;;;;;;15.34;100.00;99791.22;5090117;28;19965;-57
2023/05/12 02:33:17;;;;;;;;;;;;;;;15.32;100.00;99785.13;5089484;28;20371;-57
2023/05/12 02:35:43;;;;;;;;;;;;;;;15.34;100.00;99781.38;5079817;28;19916;-57
2023/05/12 02:38:08;;;;;;;;;;;;;;;15.34;100.00;99783.19;5087980;28;19920;-57
2023/05/12 02:40:34;;;;;;;;;;;;;;;15.28;100.00;99787.09;5089960;28;19931;-57
2023/05/12 02:42:59;;;;;;;;;;;;;;;15.30;100.00;99779.84;5089069;28;19916;-57
2023/05/12 02:45:24;;;;;;;;;;;;;;;15.33;100.00;99784.16;5090032;28;19995;-57
2023/05/12 02:47:49;;;;;;;;;;;;;;;15.32;100.00;99785.97;5089858;28;19916;-57
2023/05/12 02:50:15;;;;;;;;;;;;;;;15.32;100.00;99788.63;5088908;28;19920;-57
2023/05/12 02:52:40;;;;;;;;;;;;;;;15.31;100.00;99778.00;5089653;28;19915;-57
2023/05/12 02:55:06;;;;;;;;;;;;;;;15.27;100.00;99777.31;5089262;28;19973;-57
2023/05/12 02:57:32;;;;;;;;;;;;;;;15.32;100.00;99782.44;5089200;28;20417;-57
2023/05/12 03:00:04;;;;;;;;;;;;;;;15.29;100.00;99778.09;5089747;28;20381;-57
2023/05/12 03:02:29;;;;;;;;;;;;;;;15.27;100.00;99779.16;5089360;28;19916;-57
2023/05/12 03:04:55;;;;;;;;;;;;;;;15.20;100.00;99775.94;5088982;28;19927;-56
2023/05/12 03:07:20;;;;;;;;;;;;;;;15.22;100.00;99779.38;5089458;28;20431;-56
2023/05/12 03:09:45;;;;;;;;;;;;;;;15.20;100.00;99770.59;5088658;28;19924;-57
2023/05/12 03:12:10;;;;;;;;;;;;;;;15.22;100.00;99783.91;5089698;28;19920;-57
2023/05/12 03:14:36;;;;;;;;;;;;;;;15.21;100.00;99780.34;5083053;28;19917;-57
2023/05/12 03:17:01;;;;;;;;;;;;;;;15.18;100.00;99774.28;5089174;28;19962;-57
2023/05/12 03:19:29;;;;;;;;;;;;;;;15.18;100.00;99779.63;5089718;28;19924;-57
2023/05/12 03:21:54;;;;;;;;;;;;;;;15.17;100.00;99778.75;5088412;28;19944;-57
2023/05/12 03:24:20;;;;;;;;;;;;;;;15.17;100.00;99772.56;5089671;28;19963;-56
2023/05/12 03:26:45;;;;;;;;;;;;;;;15.16;100.00;99771.69;5093247;28;19916;-57
2023/05/12 03:29:10;;;;;;;;;;;;;;;15.18;100.00;99772.47;5092400;28;19919;-57
2023/05/12 03:31:35;;;;;;;;;;;;;;;15.19;100.00;99771.50;5093077;28;19926;-57
2023/05/12 03:34:01;;;;;;;;;;;;;;;15.18;100.00;99769.78;5092228;28;19920;-57
2023/05/12 03:36:26;;;;;;;;;;;;;;;15.19;100.00;99776.88;5093094;28;19970;-57
2023/05/12 03:38:51;;;;;;;;;;;;;;;15.14;100.00;99783.44;5093554;28;19922;-57
2023/05/12 03:41:17;;;;;;;;;;;;;;;15.11;100.00;99778.22;5092182;28;19996;-56
2023/05/12 03:43:42;;;;;;;;;;;;;;;15.10;100.00;99780.06;5093110;28;19927;-56
2023/05/12 03:46:07;;;;;;;;;;;;;;;15.18;100.00;99780.50;5092245;28;20348;-57
2023/05/12 03:48:32;;;;;;;;;;;;;;;15.17;100.00;99772.56;5093079;28;19920;-57
2023/05/12 03:50:58;;;;;;;;;;;;;;;15.20;100.00;99773.25;5092690;28;19988;-57
2023/05/12 03:53:23;;;;;;;;;;;;;;;15.20;100.00;99773.25;5091376;28;19961;-57
2023/05/12 03:55:48;;;;;;;;;;;;;;;15.18;100.00;99769.78;5084656;28;19928;-57
2023/05/12 03:58:14;;;;;;;;;;;;;;;15.22;100.00;99770.50;5082930;28;19935;-57
2023/05/12 04:00:39;;;;;;;;;;;;;;;15.25;100.00;99771.19;5090554;28;19920;-57
2023/05/12 04:03:04;;;;;;;;;;;;;;;15.25;100.00;99768.50;5091259;28;19917;-56
2023/05/12 04:05:30;;;;;;;;;;;;;;;15.26;100.00;99770.22;5087766;28;19912;-56
2023/05/12 04:07:55;;;;;;;;;;;;;;;15.31;100.00;99776.19;5091154;28;20448;-56
2023/05/12 04:10:21;;;;;;;;;;;;;;;15.31;100.00;99776.19;5092171;28;19912;-56
2023/05/12 04:12:46;;;;;;;;;;;;;;;15.27;100.00;99779.16;5092109;28;19924;-57
2023/05/12 04:15:13;;;;;;;;;;;;;;;15.22;100.00;99771.34;5092518;28;20007;-56
2023/05/12 04:17:38;;;;;;;;;;;;;;;15.26;100.00;99772.03;5091817;28;19916;-56
2023/05/12 04:20:04;;;;;;;;;;;;;;;15.26;100.00;99766.69;5092191;28;19939;-56
2023/05/12 04:22:29;;;;;;;;;;;;;;;15.25;100.00;99771.19;5090564;28;19916;-57
2023/05/12 04:24:54;;;;;;;;;;;;;;;15.26;100.00;99772.91;5090252;28;19926;-57
2023/05/12 04:27:20;;;;;;;;;;;;;;;15.28;100.00;99765.66;5091283;28;20006;-57
2023/05/12 04:29:45;;;;;;;;;;;;;;;15.29;100.00;99772.75;5090694;28;19928;-57
2023/05/12 04:32:10;;;;;;;;;;;;;;;15.29;100.00;99767.38;5092153;28;19919;-57
2023/05/12 04:34:36;;;;;;;;;;;;;;;15.26;100.00;99778.28;5092174;28;19912;-56
2023/05/12 04:37:01;;;;;;;;;;;;;;;15.29;100.00;99778.09;5090186;28;19920;-57
2023/05/12 04:39:26;;;;;;;;;;;;;;;15.33;100.00;99774.31;5088551;28;20403;-57
2023/05/12 04:41:52;;;;;;;;;;;;;;;15.38;100.00;99774.91;5076909;28;19920;-57
2023/05/12 04:44:17;;;;;;;;;;;;;;;15.37;100.00;99781.22;5090906;28;19920;-57
2023/05/12 04:46:43;;;;;;;;;;;;;;;15.37;100.00;99785.72;5091372;28;19920;-57
2023/05/12 04:49:09;;;;;;;;;;;;;;;15.34;100.00;99781.38;5090955;28;19920;-56
2023/05/12 04:51:40;;;;;;;;;;;;;;;15.40;100.00;99781.06;5091902;28;20387;-57
2023/05/12 04:54:06;;;;;;;;;;;;;;;15.46;100.00;99782.56;5091827;28;19967;-56
2023/05/12 04:56:31;;;;;;;;;;;;;;;15.51;100.00;99786.72;5092000;28;20336;-58
2023/05/12 04:58:56;;;;;;;;;;;;;;;15.52;100.00;99785.75;5090661;28;19924;-58
2023/05/12 05:01:22;;;;;;;;;;;;;;;15.51;100.00;99789.41;5090664;28;20406;-58
2023/05/12 05:03:47;;;;;;;;;;;;;;;15.50;100.00;99789.50;5091329;28;19916;-58
2023/05/12 05:06:13;;;;;;;;;;;;;;;15.54;100.00;99791.91;5090252;28;20364;-58
2023/05/12 05:08:38;;;;;;;;;;;;;;;15.55;100.00;99793.63;5091301;28;19912;-58
2023/05/12 05:11:03;;;;;;;;;;;;;;;15.55;100.00;99801.66;5091708;28;19989;-58
2023/05/12 05:13:29;;;;;;;;;;;;;;;15.56;100.00;99803.41;5091340;28;20276;-58
2023/05/12 05:15:54;;;;;;;;;;;;;;;15.56;100.00;99814.13;5087630;28;19931;-58
2023/05/12 05:18:19;;;;;;;;;;;;;;;15.57;100.00;99810.50;5091156;28;20002;-58
2023/05/12 05:20:45;;;;;;;;;;;;;;;15.61;100.00;99806.69;5090997;28;19920;-58
2023/05/12 05:23:10;;;;;;;;;;;;;;;15.62;100.00;99808.41;5089748;28;19924;-58
2023/05/12 05:25:36;;;;;;;;;;;;;;;15.63;100.00;99814.66;5088810;28;19916;-57
2023/05/12 05:28:01;;;;;;;;;;;;;;;15.65;100.00;99816.28;5078670;28;19927;-58
2023/05/12 05:30:27;;;;;;;;;;;;;;;15.63;100.00;99815.50;5080004;28;19924;-58
2023/05/12 05:32:52;;;;;;;;;;;;;;;15.61;100.00;99811.19;5082282;28;19916;-58
2023/05/12 05:35:17;;;;;;;;;;;;;;;15.61;100.00;99813.88;5081989;28;20392;-58
2023/05/12 05:37:43;;;;;;;;;;;;;;;15.60;100.00;99817.50;5085789;28;19956;-58
2023/05/12 05:40:08;;;;;;;;;;;;;;;15.64;100.00;99819.06;5087681;28;19920;-58
2023/05/12 05:42:34;;;;;;;;;;;;;;;15.70;100.00;99824.06;5081050;28;19943;-58
2023/05/12 05:44:59;;;;;;;;;;;;;;;15.67;100.00;99817.06;5087012;28;19939;-58
2023/05/12 05:47:24;;;;;;;;;;;;;;;15.70;100.00;99822.25;5078382;28;20611;-58
2023/05/12 05:49:49;;;;;;;;;;;;;;;15.75;100.00;99820.19;5080141;28;19923;-58
2023/05/12 05:52:15;;;;;;;;;;;;;;;15.81;100.00;99818.97;5084284;28;20582;-58
2023/05/12 05:54:40;;;;;;;;;;;;;;;15.83;100.00;99817.91;5089599;28;20041;-57
2023/05/12 05:57:06;;;;;;;;;;;;;;;15.90;100.00;99817.59;5090261;28;20355;-59
2023/05/12 05:59:31;;;;;;;;;;;;;;;15.91;100.00;99816.63;5063895;28;20295;-57
2023/05/12 06:01:57;;;;;;;;;;;;;;;15.91;100.00;99817.50;5085962;28;20418;-57
2023/05/12 06:04:22;;;;;;;;;;;;;;;15.94;100.00;99809.28;5086420;28;19972;-57
2023/05/12 06:06:47;;;;;;;;;;;;;;;15.99;100.00;99819.72;5085348;28;19916;-57
2023/05/12 06:09:14;;;;;;;;;;;;;;;16.04;100.00;99821.19;5072544;28;20411;-57
2023/05/12 06:11:39;;;;;;;;;;;;;;;16.11;100.00;99827.06;5082307;28;19927;-56
2023/05/12 06:14:05;;;;;;;;;;;;;;;16.03;100.00;99829.34;5068159;28;19920;-57
2023/05/12 06:16:30;;;;;;;;;;;;;;;16.11;100.00;99832.44;5072298;28;20197;-57
2023/05/12 06:18:55;;;;;;;;;;;;;;;16.14;100.00;99832.25;5079375;28;19918;-57
2023/05/12 06:21:20;;;;;;;;;;;;;;;16.17;100.00;99824.03;5075933;28;20001;-57
2023/05/12 06:23:46;;;;;;;;;;;;;;;16.21;99.45;99830.97;5071654;28;19932;-57
2023/05/12 06:26:11;;;;;;;;;;;;;;;16.23;99.77;99832.59;5086867;28;19920;-57
2023/05/12 06:28:36;;;;;;;;;;;;;;;16.21;99.40;99831.81;5088829;28;20015;-57
2023/05/12 06:31:01;;;;;;;;;;;;;;;16.25;99.00;99829.81;5080189;28;19916;-57
2023/05/12 06:33:27;;;;;;;;;;;;;;;16.26;98.34;99836.94;5080771;28;19920;-57
2023/05/12 06:35:52;;;;;;;;;;;;;;;16.31;98.29;99841.06;5081501;28;19920;-58
2023/05/12 06:38:17;;;;;;;;;;;;;;;16.37;98.24;99837.16;5088270;28;19920;-57
2023/05/12 06:40:42;;;;;;;;;;;;;;;16.38;97.70;99842.44;5087379;28;20022;-57
2023/05/12 06:43:08;;;;;;;;;;;;;;;16.44;97.63;99833.16;5082964;28;19912;-56
2023/05/12 06:45:33;;;;;;;;;;;;;;;16.46;97.46;99842.88;5076144;28;19955;-57
2023/05/12 06:47:58;;;;;;;;;;;;;;;16.53;96.72;99846.06;5063999;28;20051;-56
2023/05/12 06:50:23;;;;;;;;;;;;;;;16.46;95.85;99845.56;5076294;28;19993;-56
2023/05/12 06:52:49;;;;;;;;;;;;;;;16.54;95.59;99845.97;5088109;28;20445;-56
2023/05/12 06:55:18;;;;;;;;;;;;;;;16.63;94.60;99850.81;5076393;28;19925;-57
2023/05/12 06:57:43;;;;;;;;;;;;;;;16.68;94.60;99850.50;5086737;28;19924;-57
2023/05/12 07:00:09;;;;;;;;;;;;;;;16.69;93.89;99857.59;5088956;28;19916;-57
2023/05/12 07:02:34;;;;;;;;;;;;;;;16.73;94.44;99848.41;5091525;28;20359;-57
2023/05/12 07:05:00;;;;;;;;;;;;;;;16.78;94.75;99857.06;5090713;28;20011;-56
2023/05/12 07:07:26;;;;;;;;;;;;;;;16.88;94.17;99848.38;5092971;28;19916;-56
2023/05/12 07:09:51;;;;;;;;;;;;;;;17.01;93.55;99848.47;5093372;28;20710;-56
2023/05/12 07:12:16;;;;;;;;;;;;;;;17.04;93.54;99850.97;5092949;28;19920;-56
2023/05/12 07:14:41;;;;;;;;;;;;;;;17.07;92.25;99856.16;5093299;28;20026;-57
2023/05/12 07:17:07;;;;;;;;;;;;;;;17.15;92.01;99859.22;5085981;28;20299;-57
2023/05/12 07:19:32;;;;;;;;;;;;;;;17.06;91.26;99846.38;5093569;28;19922;-57
2023/05/12 07:21:57;;;;;;;;;;;;;;;17.18;90.71;99851.00;5091613;28;19920;-57
2023/05/12 07:24:23;;;;;;;;;;;;;;;17.26;90.61;99848.69;5080427;28;19920;-57
2023/05/12 07:26:48;;;;;;;;;;;;;;;17.09;87.27;99846.19;5075449;28;19920;-57
2023/05/12 07:29:13;;;;;;;;;;;;;;;17.03;89.24;99851.94;5078017;28;19925;-57
2023/05/12 07:31:39;;;;;;;;;;;;;;;17.09;89.79;99843.50;5081332;28;19964;-57
2023/05/12 07:34:04;;;;;;;;;;;;;;;17.15;90.43;99845.78;5074315;28;20034;-56
2023/05/12 07:36:30;;;;;;;;;;;;;;;17.09;91.14;99848.84;5083618;28;19920;-56
2023/05/12 07:38:55;;;;;;;;;;;;;;;17.13;91.02;99842.34;5087712;28;19917;-57
2023/05/12 07:41:20;;;;;;;;;;;;;;;17.16;91.23;99847.53;5064873;28;19924;-57
2023/05/12 07:43:46;;;;;;;;;;;;;;;17.13;90.92;99845.88;5075701;28;19967;-57
2023/05/12 07:46:11;;;;;;;;;;;;;;;17.23;89.96;99842.63;5072646;28;19917;-57
2023/05/12 07:48:38;;;;;;;;;;;;;;;17.34;89.92;99846.38;5092717;28;19920;-57
2023/05/12 07:51:04;;;;;;;;;;;;;;;17.33;89.30;99844.63;5093299;28;19916;-57
2023/05/12 07:53:30;;;;;;;;;;;;;;;17.50;88.85;99841.78;5092420;28;19920;-57
2023/05/12 07:55:55;;;;;;;;;;;;;;;17.76;87.62;99848.22;5085136;28;20368;-57
2023/05/12 07:58:21;;;;;;;;;;;;;;;17.99;85.95;99834.97;5073606;28;19925;-57
2023/05/12 08:00:46;;;;;;;;;;;;;;;18.16;85.26;99840.13;5088810;28;19977;-57
2023/05/12 08:03:12;;;;;;;;;;;;;;;18.31;83.13;99839.09;5092943;28;19919;-57
2023/05/12 08:05:37;;;;;;;;;;;;;;;18.47;83.36;99838.94;5092848;28;19912;-57
2023/05/12 08:08:02;;;;;;;;;;;;;;;18.62;82.87;99839.72;5091226;28;19923;-57
2023/05/12 08:10:28;;;;;;;;;;;;;;;18.82;79.90;99841.94;5092432;28;19926;-57
2023/05/12 08:12:54;;;;;;;;;;;;;;;18.91;79.20;99838.63;5090638;28;19922;-57
2023/05/12 08:15:19;;;;;;;;;;;;;;;18.92;79.22;99832.25;5092648;28;20007;-57
2023/05/12 08:17:44;;;;;;;;;;;;;;;19.03;78.21;99835.03;5091962;28;19931;-57
2023/05/12 08:20:10;;;;;;;;;;;;;;;19.01;80.17;99842.41;5091166;28;20020;-57
2023/05/12 08:22:35;;;;;;;;;;;;;;;19.09;79.06;99840.03;5092457;28;19912;-57
2023/05/12 08:25:01;;;;;;;;;;;;;;;18.99;75.46;99841.63;5091630;28;19916;-57
2023/05/12 08:27:26;;;;;;;;;;;;;;;19.04;76.59;99843.06;5092316;28;20330;-57
2023/05/12 08:29:51;;;;;;;;;;;;;;;19.21;75.60;99844.53;5092145;28;19916;-57
2023/05/12 08:32:16;;;;;;;;;;;;;;;19.25;72.74;99840.66;5091087;28;19931;-58
2023/05/12 08:34:42;;;;;;;;;;;;;;;19.30;71.73;99838.53;5091570;28;19931;-57
2023/05/12 08:37:07;;;;;;;;;;;;;;;19.51;72.74;99843.28;5078639;28;19947;-57
2023/05/12 08:39:33;;;;;;;;;;;;;;;19.74;72.46;99841.59;5091794;28;19923;-57
2023/05/12 08:42:02;;;;;;;;;;;;;;;19.59;72.64;99840.88;5092196;28;19955;-57
2023/05/12 08:44:27;;;;;;;;;;;;;;;19.81;69.45;99845.59;5091284;28;20397;-57
2023/05/12 08:46:53;;;;;;;;;;;;;;;20.01;68.13;99847.69;5091770;28;19920;-57
2023/05/12 08:49:19;;;;;;;;;;;;;;;20.17;67.68;99842.91;5090567;28;19915;-57
2023/05/12 08:51:46;;;;;;;;;;;;;;;20.14;66.96;99842.25;5091202;28;19920;-57
2023/05/12 08:54:12;;;;;;;;;;;;;;;20.22;65.88;99845.25;5090101;28;19912;-56
2023/05/12 08:56:38;;;;;;;;;;;;;;;20.51;66.19;99850.19;5090396;28;19920;-57
2023/05/12 08:59:05;;;;;;;;;;;;;;;20.65;62.60;99855.44;5086744;28;20003;-57
2023/05/12 09:01:33;;;;;;;;;;;;;;;20.69;66.29;99854.19;5061636;28;19928;-57
2023/05/12 09:03:58;;;;;;;;;;;;;;;20.91;65.84;99848.00;5091184;28;19969;-57
2023/05/12 09:06:24;;;;;;;;;;;;;;;20.66;64.27;99857.16;5090874;28;19920;-57
2023/05/12 09:08:50;;;;;;;;;;;;;;;20.83;66.24;99854.03;5091446;28;20067;-56
2023/05/12 09:11:15;;;;;;;;;;;;;;;20.93;63.85;99846.94;5091468;28;19939;-57
2023/05/12 09:13:51;;;;;;;;;;;;;;;21.02;63.44;99848.06;5090618;28;19916;-57
2023/05/12 09:16:19;;;;;;;;;;;;;;;20.55;60.92;99848.13;5078051;28;19916;-57
2023/05/12 09:18:52;;;;;;;;;;;;;;;20.48;65.88;99845.03;5078859;28;19916;-57
2023/05/12 09:21:17;;;;;;;;;;;;;;;20.54;62.50;99841.00;5070934;28;19963;-57
2023/05/12 09:24:06;;;;;;;;;;;;;;;20.60;63.00;99852.22;5089276;28;19920;-57
2023/05/12 09:26:42;;;;;;;;;;;;;;;20.81;66.49;99838.88;5091011;28;19961;-57
2023/05/12 09:29:08;;;;;;;;;;;;;;;20.98;63.49;99840.31;5090026;28;20376;-57
2023/05/12 09:31:33;;;;;;;;;;;;;;;20.82;62.37;99846.88;5091327;28;19966;-57
2023/05/12 09:34:00;;;;;;;;;;;;;;;20.56;64.18;99844.47;5090148;28;19977;-57
2023/05/12 09:36:26;;;;;;;;;;;;;;;20.66;64.26;99846.34;5087572;28;19916;-57
2023/05/12 09:39:05;;;;;;;;;;;;;;;21.01;65.93;99840.06;5052537;28;19926;-57
2023/05/12 09:41:35;;;;;;;;;;;;;;;21.13;63.54;99840.00;5088375;28;20169;-57
2023/05/12 09:44:00;;;;;;;;;;;;;;;21.14;60.94;99843.53;5089458;28;20423;-57
2023/05/12 09:46:25;;;;;;;;;;;;;;;21.04;64.23;99847.97;5090286;28;19963;-57
2023/05/12 09:48:54;;;;;;;;;;;;;;;20.91;64.93;99850.72;5089997;28;19916;-56
2023/05/12 09:51:19;;;;;;;;;;;;;;;20.79;61.55;99841.72;5090659;28;19916;-56
2023/05/12 09:53:45;;;;;;;;;;;;;;;20.83;64.34;99845.03;5090736;28;19923;-57
2023/05/12 09:56:11;;;;;;;;;;;;;;;20.79;63.84;99852.53;5089779;28;19927;-57
2023/05/12 09:58:38;;;;;;;;;;;;;;;20.71;64.30;99848.69;5079080;28;20446;-57
2023/05/12 10:01:06;;;;;;;;;;;;;;;21.01;64.78;99840.06;5069794;28;20227;-57
2023/05/12 10:03:33;;;;;;;;;;;;;;;21.36;64.06;99840.88;5073945;28;20155;-57
2023/05/12 10:06:02;;;;;;;;;;;;;;;21.62;61.72;99847.75;5089040;28;19961;-57
2023/05/12 10:08:32;;;;;;;;;;;;;;;21.47;58.86;99846.28;5082215;28;19924;-57
2023/05/12 10:10:58;;;;;;;;;;;;;;;21.34;61.80;99842.81;5085726;28;19920;-57
2023/05/12 10:13:25;;;;;;;;;;;;;;;21.18;61.35;99845.03;5087357;28;19919;-57
2023/05/12 10:15:51;;;;;;;;;;;;;;;20.85;62.87;99841.25;5088371;28;19922;-57
2023/05/12 10:18:16;;;;;;;;;;;;;;;20.43;63.08;99843.66;5087509;28;19920;-57
2023/05/12 10:20:43;;;;;;;;;;;;;;;20.29;63.44;99836.59;5089659;28;19964;-57
2023/05/12 10:23:11;;;;;;;;;;;;;;;20.12;65.51;99842.34;5089189;28;19998;-57
2023/05/12 10:25:37;;;;;;;;;;;;;;;20.04;66.06;99839.38;5090420;28;20062;-57
2023/05/12 10:28:02;;;;;;;;;;;;;;;19.97;64.92;99832.69;5089607;28;19963;-57
2023/05/12 10:30:28;;;;;;;;;;;;;;;19.92;64.59;99832.16;5089943;28;19963;-57
2023/05/12 10:32:56;;;;;;;;;;;;;;;19.89;65.23;99836.91;5083757;28;19912;-57
2023/05/12 10:35:30;;;;;;;;;;;;;;;19.81;64.08;99828.53;5075076;28;20314;-57
2023/05/12 10:37:59;;;;;;;;;;;;;;;19.60;68.57;99829.09;5078126;28;19924;-57
2023/05/12 10:40:25;;;;;;;;;;;;;;;19.57;68.14;99826.63;5069932;28;19920;-57
2023/05/12 10:42:51;;;;;;;;;;;;;;;19.58;66.24;99832.91;5078345;28;19916;-57
2023/05/12 10:45:17;;;;;;;;;;;;;;;19.54;68.43;99836.78;5090252;28;19943;-57
2023/05/12 10:47:43;;;;;;;;;;;;;;;19.52;68.57;99827.97;5089048;28;19920;-57
2023/05/12 10:50:12;;;;;;;;;;;;;;;19.50;66.76;99829.91;5089897;28;19923;-57
2023/05/12 10:52:37;;;;;;;;;;;;;;;19.45;68.74;99832.06;5089641;28;20014;-57
2023/05/12 10:55:03;;;;;;;;;;;;;;;19.45;68.19;99822.16;5089146;28;20093;-57
2023/05/12 10:57:29;;;;;;;;;;;;;;;19.34;69.88;99821.19;5090083;28;19924;-57
2023/05/12 11:00:00;;;;;;;;;;;;;;;19.28;69.91;99827.84;5089745;28;19924;-57
2023/05/12 11:02:29;;;;;;;;;;;;;;;19.38;69.36;99833.47;5088489;28;20336;-58
2023/05/12 11:04:58;;;;;;;;;;;;;;;19.64;69.97;99825.22;5088770;28;20121;-57
2023/05/12 11:07:25;;;;;;;;;;;;;;;19.82;69.91;99836.50;5090131;28;20634;-57
2023/05/12 11:09:51;;;;;;;;;;;;;;;19.84;68.62;99826.47;5089162;28;19917;-57
2023/05/12 11:12:16;;;;;;;;;;;;;;;19.81;67.75;99829.41;5089664;28;19927;-57
2023/05/12 11:14:42;;;;;;;;;;;;;;;19.67;68.09;99831.38;5086531;28;19993;-58
2023/05/12 11:17:10;;;;;;;;;;;;;;;19.65;69.36;99834.19;5089502;28;19920;-57
2023/05/12 11:19:36;;;;;;;;;;;;;;;19.54;69.80;99831.38;5089649;28;19918;-57
2023/05/12 11:22:06;;;;;;;;;;;;;;;19.59;72.75;99840.00;5089893;28;20333;-58
2023/05/12 11:24:31;;;;;;;;;;;;;;;19.54;72.09;99839.47;5088375;28;20577;-58
2023/05/12 11:26:57;;;;;;;;;;;;;;;19.53;71.65;99833.25;5089343;28;19919;-58
2023/05/12 11:29:22;;;;;;;;;;;;;;;19.50;70.70;99840.69;5088472;28;19925;-58
2023/05/12 11:31:48;;;;;;;;;;;;;;;19.44;71.80;99839.28;5089755;28;19916;-58
2023/05/12 11:34:14;;;;;;;;;;;;;;;19.37;72.12;99835.28;5089311;28;19936;-58
2023/05/12 11:36:41;;;;;;;;;;;;;;;19.31;72.84;99834.88;5089560;28;19962;-57
2023/05/12 11:39:06;;;;;;;;;;;;;;;19.28;74.81;99840.44;5088556;28;19916;-58
2023/05/12 11:41:31;;;;;;;;;;;;;;;19.27;75.19;99844.13;5089773;28;19950;-58
2023/05/12 11:43:56;;;;;;;;;;;;;;;19.14;72.33;99837.88;5089452;28;19920;-58
2023/05/12 11:46:28;;;;;;;;;;;;;;;19.07;73.08;99852.75;5089762;28;19945;-57
2023/05/12 11:48:54;;;;;;;;;;;;;;;19.04;73.87;99847.56;5091903;28;19920;-57
2023/05/12 11:51:20;;;;;;;;;;;;;;;19.05;75.38;99849.28;5092886;28;20003;-57
2023/05/12 11:53:45;;;;;;;;;;;;;;;19.06;75.00;99848.34;5092901;28;20006;-57
2023/05/12 11:56:16;;;;;;;;;;;;;;;18.84;72.56;99853.47;5092131;28;19912;-57
2023/05/12 11:58:50;;;;;;;;;;;;;;;18.86;74.00;99852.38;5079444;28;19930;-57
2023/05/12 12:01:15;;;;;;;;;;;;;;;18.87;74.02;99850.56;5072502;28;19957;-57
2023/05/12 12:03:47;;;;;;;;;;;;;;;18.94;73.04;99850.06;5074634;28;20307;-58
2023/05/12 12:06:13;;;;;;;;;;;;;;;18.87;75.15;99848.75;5092670;28;19912;-58
2023/05/12 12:08:48;;;;;;;;;;;;;;;18.91;73.95;99857.50;5091438;28;19961;-57
2023/05/12 12:11:13;;;;;;;;;;;;;;;19.02;73.90;99860.28;5092498;28;19916;-58
2023/05/12 12:13:46;;;;;;;;;;;;;;;19.04;71.47;99858.38;5091755;28;20390;-58
2023/05/12 12:16:11;;;;;;;;;;;;;;;19.10;73.62;99857.91;5092367;28;19920;-58
2023/05/12 12:18:36;;;;;;;;;;;;;;;19.12;73.03;99853.28;5091407;28;20061;-58
2023/05/12 12:21:01;;;;;;;;;;;;;;;19.16;72.91;99862.91;5092172;28;19916;-58
2023/05/12 12:23:27;;;;;;;;;;;;;;;19.33;73.56;99859.91;5092112;28;19923;-58
2023/05/12 12:25:52;;;;;;;;;;;;;;;19.39;74.41;99871.13;5091593;28;19920;-58
2023/05/12 12:28:17;;;;;;;;;;;;;;;19.47;74.44;99857.94;5091810;28;20005;-58
2023/05/12 12:30:42;;;;;;;;;;;;;;;19.63;73.65;99860.41;5091600;28;19927;-58
2023/05/12 12:33:08;;;;;;;;;;;;;;;19.79;73.59;99863.72;5091935;28;19969;-58